createdAt,value
2023-05-13T00:01:28.424Z,99.90
2023-05-13T00:03:58.083Z,99.90
2023-05-13T00:06:25.186Z,99.90
2023-05-13T00:08:55.033Z,99.90
2023-05-13T00:11:24.535Z,99.90
2023-05-13T00:13:54.388Z,99.90
2023-05-13T00:16:23.725Z,99.90
2023-05-13T00:18:53.482Z,99.90
2023-05-13T00:21:20.522Z,99.90
2023-05-13T00:23:47.909Z,99.90
2023-05-13T00:26:14.927Z,99.90
2023-05-13T00:28:42.271Z,99.90
2023-05-13T00:31:09.488Z,99.90
2023-05-13T00:33:36.895Z,99.90
2023-05-13T00:36:04.119Z,99.90
2023-05-13T00:38:31.816Z,99.90
2023-05-13T00:40:58.902Z,99.90
2023-05-13T00:43:26.273Z,99.90
2023-05-13T00:45:55.871Z,99.90
2023-05-13T00:48:23.830Z,99.90
2023-05-13T00:50:50.958Z,99.90
2023-05-13T00:53:20.968Z,99.90
2023-05-13T00:55:52.458Z,99.90
2023-05-13T00:58:22.044Z,99.90
2023-05-13T01:01:13.768Z,99.90
2023-05-13T01:03:49.536Z,99.90
2023-05-13T01:06:44.980Z,99.90
2023-05-13T01:09:33.768Z,99.90
2023-05-13T01:12:12.871Z,99.90
2023-05-13T01:14:54.211Z,99.90
2023-05-13T01:17:30.887Z,99.90
2023-05-13T01:20:00.265Z,99.90
2023-05-13T01:22:27.380Z,99.90
2023-05-13T01:24:54.744Z,99.90
2023-05-13T01:27:21.835Z,99.90
2023-05-13T01:29:50.158Z,99.90
2023-05-13T01:32:21.581Z,99.90
2023-05-13T01:34:52.405Z,99.90
2023-05-13T01:37:20.316Z,99.90
2023-05-13T01:39:48.366Z,99.90
2023-05-13T01:42:18.011Z,99.90
2023-05-13T01:47:12.886Z,99.90
2023-05-13T01:52:10.032Z,99.90
2023-05-13T01:57:05.144Z,99.90
2023-05-13T01:59:34.768Z,99.90
2023-05-13T02:06:59.415Z,99.90
2023-05-13T02:09:28.951Z,99.90
2023-05-13T02:11:56.170Z,99.90
2023-05-13T02:14:23.036Z,99.90
2023-05-13T02:16:53.284Z,99.90
2023-05-13T02:19:20.453Z,99.90
2023-05-13T02:21:47.905Z,99.90
2023-05-13T02:24:14.949Z,99.90
2023-05-13T02:26:42.351Z,99.90
2023-05-13T02:29:09.379Z,99.90
2023-05-13T02:31:36.773Z,99.90
2023-05-13T02:34:04.047Z,99.90
2023-05-13T02:36:31.422Z,99.90
2023-05-13T02:38:58.450Z,99.90
2023-05-13T02:41:25.786Z,99.90
2023-05-13T02:43:52.817Z,99.90
2023-05-13T02:46:20.231Z,99.90
2023-05-13T02:51:15.016Z,99.90
2023-05-13T02:53:42.115Z,99.90
2023-05-13T02:56:11.981Z,99.90
2023-05-13T02:58:39.147Z,99.90
2023-05-13T03:03:42.392Z,99.90
2023-05-13T03:06:12.149Z,99.90
2023-05-13T03:08:39.226Z,99.90
2023-05-13T03:11:06.639Z,99.90
2023-05-13T03:13:33.798Z,99.90
2023-05-13T03:16:03.428Z,99.90
2023-05-13T03:18:30.490Z,99.90
2023-05-13T03:20:57.929Z,99.90
2023-05-13T03:23:27.473Z,99.90
2023-05-13T03:25:54.827Z,99.90
2023-05-13T03:28:21.952Z,99.90
2023-05-13T03:30:49.326Z,99.90
2023-05-13T03:33:18.649Z,99.90
2023-05-13T03:35:46.164Z,99.90
2023-05-13T03:38:13.169Z,99.90
2023-05-13T03:40:40.722Z,99.90
2023-05-13T03:43:07.986Z,99.90
2023-05-13T03:45:45.536Z,99.90
2023-05-13T03:48:12.645Z,99.90
2023-05-13T03:50:40.402Z,99.90
2023-05-13T03:53:10.570Z,99.90
2023-05-13T03:55:38.065Z,99.90
2023-05-13T03:58:12.596Z,99.90
2023-05-13T04:00:44.659Z,99.90
2023-05-13T04:03:15.041Z,99.90
2023-05-13T04:05:42.948Z,99.90
2023-05-13T04:08:09.954Z,99.90
2023-05-13T04:10:40.020Z,99.90
2023-05-13T04:13:10.036Z,99.90
2023-05-13T04:15:37.614Z,99.90
2023-05-13T04:18:04.730Z,99.90
2023-05-13T04:20:32.120Z,99.90
2023-05-13T04:22:59.178Z,99.90
2023-05-13T04:25:26.467Z,99.90
2023-05-13T04:27:53.723Z,99.90
2023-05-13T04:30:21.359Z,99.90
2023-05-13T04:32:48.630Z,99.90
2023-05-13T04:35:18.628Z,99.90
2023-05-13T04:37:48.209Z,99.90
2023-05-13T04:40:15.934Z,99.90
2023-05-13T04:42:42.983Z,99.90
2023-05-13T04:45:10.662Z,99.90
2023-05-13T04:47:38.138Z,99.90
2023-05-13T04:50:06.173Z,99.90
2023-05-13T04:52:33.591Z,99.90
2023-05-13T04:55:01.018Z,99.90
2023-05-13T04:57:28.049Z,99.90
2023-05-13T04:59:55.453Z,99.90
2023-05-13T05:28:29.640Z,99.90
2023-05-13T05:30:59.255Z,99.90
2023-05-13T05:33:26.417Z,99.90
2023-05-13T05:35:56.633Z,99.90
2023-05-13T05:38:23.685Z,99.90
2023-05-13T05:40:53.715Z,99.90
2023-05-13T05:43:20.846Z,99.90
2023-05-13T05:45:50.900Z,99.90
2023-05-13T05:48:20.429Z,99.90
2023-05-13T05:50:50.328Z,99.90
2023-05-13T05:53:17.397Z,99.90
2023-05-13T05:55:46.991Z,99.90
2023-05-13T05:58:17.263Z,99.90
2023-05-13T06:00:44.733Z,99.90
2023-05-13T06:03:14.266Z,99.90
2023-05-13T06:05:47.098Z,99.90
2023-05-13T06:08:14.267Z,99.90
2023-05-13T06:10:41.590Z,99.90
2023-05-13T06:13:08.619Z,99.90
2023-05-13T06:15:38.125Z,99.90
2023-05-13T06:18:05.615Z,99.90
2023-05-13T06:20:33.140Z,99.90
2023-05-13T06:23:02.390Z,99.90
2023-05-13T06:25:32.000Z,99.90
2023-05-13T06:28:00.798Z,99.90
2023-05-13T06:30:29.569Z,97.60
2023-05-13T06:33:02.188Z,94.00
2023-05-13T06:35:30.372Z,91.20
2023-05-13T06:37:57.683Z,90.00
2023-05-13T06:40:25.230Z,86.50
2023-05-13T06:42:54.578Z,82.00
2023-05-13T06:45:22.023Z,78.50
2023-05-13T06:47:51.012Z,75.80
2023-05-13T06:50:21.165Z,72.40
2023-05-13T06:52:48.467Z,71.30
2023-05-13T06:55:15.889Z,67.20
2023-05-13T06:57:43.734Z,68.80
2023-05-13T07:00:11.781Z,70.80
2023-05-13T07:02:38.928Z,72.00
2023-05-13T07:05:07.825Z,75.30
2023-05-13T07:07:41.067Z,77.80
2023-05-13T07:10:08.683Z,80.10
2023-05-13T07:12:35.792Z,81.60
2023-05-13T07:15:03.180Z,83.20
2023-05-13T07:17:32.611Z,84.10
2023-05-13T07:20:02.288Z,84.80
2023-05-13T07:22:29.328Z,86.30
2023-05-13T07:24:57.075Z,86.70
2023-05-13T07:27:24.171Z,86.70
2023-05-13T07:29:54.007Z,85.80
2023-05-13T07:32:21.126Z,85.40
2023-05-13T07:34:48.493Z,86.10
2023-05-13T07:37:15.544Z,86.70
2023-05-13T07:39:45.111Z,88.40
2023-05-13T07:42:12.147Z,89.00
2023-05-13T07:44:39.557Z,90.50
2023-05-13T07:47:06.831Z,90.70
2023-05-13T07:49:34.253Z,90.40
2023-05-13T07:52:01.441Z,90.80
2023-05-13T07:54:28.838Z,91.10
2023-05-13T07:56:56.078Z,91.70
2023-05-13T07:59:23.533Z,92.40
2023-05-13T08:01:51.390Z,93.10
2023-05-13T08:04:21.116Z,94.00
2023-05-13T08:06:50.546Z,94.30
2023-05-13T08:09:17.941Z,94.60
2023-05-13T08:11:45.254Z,95.00
2023-05-13T08:14:12.582Z,95.00
2023-05-13T08:16:42.191Z,95.20
2023-05-13T08:19:09.975Z,95.50
2023-05-13T08:21:37.060Z,95.90
2023-05-13T08:24:07.071Z,96.20
2023-05-13T08:26:34.345Z,96.50
2023-05-13T08:29:04.401Z,96.80
2023-05-13T08:31:31.598Z,98.50
2023-05-13T08:33:59.099Z,99.90
2023-05-13T08:36:26.208Z,97.80
2023-05-13T08:38:53.570Z,97.20
2023-05-13T08:41:29.714Z,97.00
2023-05-13T08:43:58.610Z,96.70
2023-05-13T08:46:31.872Z,95.90
2023-05-13T08:48:59.868Z,95.80
2023-05-13T08:51:26.986Z,95.90
2023-05-13T08:53:56.235Z,95.80
2023-05-13T08:56:23.312Z,95.00
2023-05-13T08:58:53.138Z,95.70
2023-05-13T09:01:26.584Z,95.00
2023-05-13T09:04:06.889Z,94.70
2023-05-13T09:06:34.000Z,94.60
2023-05-13T09:09:01.660Z,96.20
2023-05-13T09:11:29.309Z,97.80
2023-05-13T09:14:03.357Z,98.40
2023-05-13T09:16:31.078Z,98.70
2023-05-13T09:19:00.632Z,98.70
2023-05-13T09:21:32.179Z,98.90
2023-05-13T09:24:11.390Z,98.70
2023-05-13T09:26:42.303Z,98.50
2023-05-13T09:29:21.659Z,98.50
2023-05-13T09:31:56.672Z,98.00
2023-05-13T09:34:34.851Z,97.90
2023-05-13T09:37:06.790Z,97.20
2023-05-13T09:39:44.294Z,97.50
2023-05-13T09:42:18.873Z,97.60
2023-05-13T09:44:46.933Z,97.20
2023-05-13T09:47:15.024Z,96.40
2023-05-13T09:49:44.762Z,94.70
2023-05-13T09:52:17.191Z,92.90
2023-05-13T09:54:47.694Z,93.20
2023-05-13T09:57:15.215Z,92.50
2023-05-13T09:59:42.628Z,92.00
2023-05-13T10:02:15.269Z,92.20
2023-05-13T10:04:45.630Z,91.50
2023-05-13T10:07:13.025Z,90.70
2023-05-13T10:09:45.884Z,90.80
2023-05-13T10:12:14.892Z,90.20
2023-05-13T10:14:43.487Z,90.50
2023-05-13T10:17:14.337Z,96.60
2023-05-13T10:19:42.365Z,90.00
2023-05-13T10:22:13.502Z,90.40
2023-05-13T10:24:44.106Z,97.50
2023-05-13T10:27:12.138Z,91.10
2023-05-13T10:29:40.732Z,91.00
2023-05-13T10:32:09.084Z,90.90
2023-05-13T10:34:38.745Z,91.20
2023-05-13T10:37:29.567Z,91.70
2023-05-13T10:40:16.578Z,91.80
2023-05-13T10:42:51.759Z,92.00
2023-05-13T10:45:25.627Z,91.90
2023-05-13T10:47:54.711Z,90.70
2023-05-13T10:50:25.464Z,91.30
2023-05-13T10:52:56.513Z,91.70
2023-05-13T10:55:27.456Z,92.30
2023-05-13T10:58:12.079Z,92.90
2023-05-13T11:00:41.972Z,93.90
2023-05-13T11:03:28.774Z,93.50
2023-05-13T11:06:13.919Z,93.50
2023-05-13T11:08:50.675Z,93.30
2023-05-13T11:11:18.728Z,93.50
2023-05-13T11:13:45.961Z,93.70
2023-05-13T11:16:13.816Z,93.90
2023-05-13T11:18:45.491Z,94.30
2023-05-13T11:21:13.230Z,94.10
2023-05-13T11:24:01.097Z,93.80
2023-05-13T11:26:54.495Z,94.40
2023-05-13T11:29:30.128Z,94.30
2023-05-13T11:32:00.081Z,93.50
2023-05-13T11:34:28.178Z,91.20
2023-05-13T11:37:04.559Z,90.90
2023-05-13T11:39:33.005Z,89.80
2023-05-13T11:42:01.027Z,90.10
2023-05-13T11:44:28.371Z,90.20
2023-05-13T11:47:00.151Z,90.40
2023-05-13T11:49:45.809Z,90.50
2023-05-13T11:52:14.072Z,90.70
2023-05-13T11:54:42.953Z,90.60
2023-05-13T11:57:23.222Z,90.40
2023-05-13T11:59:58.621Z,90.10
2023-05-13T12:02:34.412Z,90.10
2023-05-13T12:05:06.390Z,90.30
2023-05-13T12:07:37.488Z,89.60
2023-05-13T12:10:06.250Z,89.30
2023-05-13T12:12:37.457Z,90.00
2023-05-13T12:15:07.360Z,88.90
2023-05-13T12:17:35.038Z,95.70
2023-05-13T12:20:18.258Z,89.20
2023-05-13T12:22:45.574Z,90.00
2023-05-13T12:25:37.417Z,95.90
2023-05-13T12:28:17.197Z,88.10
2023-05-13T12:30:49.380Z,88.00
2023-05-13T12:33:21.063Z,84.70
2023-05-13T12:35:54.959Z,84.90
2023-05-13T12:38:24.178Z,84.40
2023-05-13T12:40:53.863Z,92.20
2023-05-13T12:43:21.229Z,83.50
2023-05-13T12:45:52.358Z,83.20
2023-05-13T12:48:25.548Z,84.10
2023-05-13T12:50:52.665Z,86.00
2023-05-13T12:53:20.046Z,85.60
2023-05-13T12:55:47.093Z,84.80
2023-05-13T12:58:14.460Z,84.40
2023-05-13T13:00:41.597Z,84.90
2023-05-13T13:03:11.553Z,84.70
2023-05-13T13:05:41.238Z,84.80
2023-05-13T13:08:08.761Z,86.10
2023-05-13T13:10:38.366Z,86.60
2023-05-13T13:13:05.746Z,87.10
2023-05-13T13:18:01.151Z,89.40
2023-05-13T13:20:28.289Z,89.80
2023-05-13T13:23:00.299Z,90.20
2023-05-13T13:25:27.478Z,90.70
2023-05-13T13:27:55.227Z,90.60
2023-05-13T13:30:24.889Z,90.00
2023-05-13T13:32:52.529Z,88.70
2023-05-13T13:35:19.787Z,89.00
2023-05-13T13:37:49.569Z,88.70
2023-05-13T13:40:16.607Z,88.50
2023-05-13T13:42:45.407Z,88.60
2023-05-13T13:45:15.424Z,88.70
2023-05-13T13:47:42.875Z,89.40
2023-05-13T13:50:15.080Z,88.60
2023-05-13T13:52:42.456Z,89.40
2023-05-13T13:55:09.782Z,88.40
2023-05-13T13:57:39.621Z,88.80
2023-05-13T14:00:07.468Z,88.90
2023-05-13T14:02:37.139Z,89.00
2023-05-13T14:05:07.018Z,88.30
2023-05-13T14:07:36.802Z,87.60
2023-05-13T14:10:05.609Z,87.50
2023-05-13T14:12:35.397Z,86.90
2023-05-13T14:15:02.615Z,86.10
2023-05-13T14:17:32.822Z,86.40
2023-05-13T14:19:59.905Z,86.60
2023-05-13T14:22:29.877Z,86.90
2023-05-13T14:24:59.464Z,86.70
2023-05-13T14:27:26.960Z,85.70
2023-05-13T14:29:54.474Z,88.40
2023-05-13T14:32:21.884Z,86.10
2023-05-13T14:34:49.038Z,86.80
2023-05-13T14:37:16.446Z,87.30
2023-05-13T14:39:43.619Z,87.80
2023-05-13T14:42:11.049Z,87.00
2023-05-13T14:44:38.514Z,88.20
2023-05-13T14:47:10.228Z,90.00
2023-05-13T14:49:39.631Z,91.30
2023-05-13T14:52:09.733Z,92.30
2023-05-13T14:54:36.868Z,93.20
2023-05-13T14:57:05.954Z,93.80
2023-05-13T14:59:35.433Z,94.60
2023-05-13T15:02:03.711Z,95.00
2023-05-13T15:04:30.926Z,95.20
2023-05-13T15:06:58.581Z,95.10
2023-05-13T15:09:25.732Z,95.10
2023-05-13T15:11:55.281Z,95.70
2023-05-13T15:14:26.029Z,95.20
2023-05-13T15:16:53.742Z,94.40
2023-05-13T15:19:23.473Z,94.20
2023-05-13T15:21:52.930Z,93.90
2023-05-13T15:24:20.340Z,93.90
2023-05-13T15:26:49.483Z,93.90
2023-05-13T15:29:19.408Z,93.90
2023-05-13T15:31:49.394Z,93.90
2023-05-13T15:34:17.054Z,93.70
2023-05-13T15:36:46.579Z,93.80
2023-05-13T15:39:14.168Z,93.80
2023-05-13T15:41:43.734Z,93.50
2023-05-13T15:44:11.153Z,93.60
2023-05-13T15:46:38.292Z,93.60
2023-05-13T15:49:05.716Z,93.80
2023-05-13T15:51:32.820Z,93.80
2023-05-13T15:54:00.273Z,93.90
2023-05-13T15:56:32.764Z,94.00
2023-05-13T15:59:02.601Z,94.00
2023-05-13T16:01:31.234Z,93.80
2023-05-13T16:04:00.391Z,93.90
2023-05-13T16:06:27.496Z,94.10
2023-05-13T16:08:56.430Z,94.20
2023-05-13T16:11:23.861Z,94.30
2023-05-13T16:13:53.437Z,94.20
2023-05-13T16:16:23.448Z,94.20
2023-05-13T16:18:53.559Z,94.40
2023-05-13T16:21:22.907Z,94.40
2023-05-13T16:23:50.762Z,94.60
2023-05-13T16:26:18.064Z,94.80
2023-05-13T16:28:48.854Z,94.80
2023-05-13T16:31:16.363Z,95.20
2023-05-13T16:33:47.140Z,94.90
2023-05-13T16:36:22.787Z,95.20
2023-05-13T16:38:52.640Z,95.20
2023-05-13T16:41:19.736Z,94.80
2023-05-13T16:43:49.553Z,94.90
2023-05-13T16:46:19.265Z,95.10
2023-05-13T16:48:49.001Z,95.10
2023-05-13T16:51:18.557Z,95.10
2023-05-13T16:53:45.945Z,95.20
2023-05-13T16:56:12.983Z,95.20
2023-05-13T16:58:45.062Z,95.20
2023-05-13T17:01:12.127Z,95.20
2023-05-13T17:03:39.580Z,95.10
2023-05-13T17:06:09.194Z,95.10
2023-05-13T17:08:38.875Z,95.30
2023-05-13T17:11:08.197Z,95.40
2023-05-13T17:13:37.768Z,95.60
2023-05-13T17:16:05.166Z,95.70
2023-05-13T17:18:32.570Z,95.90
2023-05-13T17:20:59.708Z,96.00
2023-05-13T17:23:31.939Z,95.70
2023-05-13T17:25:59.065Z,95.60
2023-05-13T17:28:26.385Z,95.50
2023-05-13T17:30:53.433Z,95.60
2023-05-13T17:33:23.384Z,95.60
2023-05-13T17:35:50.423Z,95.80
2023-05-13T17:38:18.114Z,96.20
2023-05-13T17:40:45.326Z,96.30
2023-05-13T17:43:14.277Z,96.40
2023-05-13T17:45:41.860Z,96.50
2023-05-13T17:48:09.359Z,96.50
2023-05-13T17:50:39.711Z,96.60
2023-05-13T17:53:09.667Z,96.70
2023-05-13T17:55:36.920Z,96.80
2023-05-13T17:58:04.279Z,97.10
2023-05-13T18:00:31.350Z,97.20
2023-05-13T18:02:58.801Z,97.40
2023-05-13T18:05:26.169Z,97.60
2023-05-13T18:07:58.015Z,97.80
2023-05-13T18:10:25.252Z,98.10
2023-05-13T18:12:52.894Z,98.30
2023-05-13T18:15:20.354Z,98.40
2023-05-13T18:17:50.086Z,98.50
2023-05-13T18:20:22.305Z,98.70
2023-05-13T18:22:52.018Z,98.90
2023-05-13T18:25:19.503Z,99.10
2023-05-13T18:27:48.868Z,99.20
2023-05-13T18:30:17.101Z,99.20
2023-05-13T18:32:44.336Z,99.80
2023-05-13T18:35:14.180Z,99.90
2023-05-13T18:37:41.265Z,99.90
2023-05-13T18:40:09.313Z,99.90
2023-05-13T18:42:40.912Z,99.90
2023-05-13T18:45:09.662Z,99.90
2023-05-13T18:47:39.242Z,99.90
2023-05-13T18:50:09.515Z,99.90
2023-05-13T18:52:36.588Z,99.90
2023-05-13T18:55:04.709Z,99.90
2023-05-13T18:57:31.899Z,99.90
2023-05-13T18:59:59.316Z,99.90
2023-05-13T19:02:28.844Z,99.90
2023-05-13T19:04:58.787Z,99.90
2023-05-13T19:07:26.012Z,99.90
2023-05-13T19:09:53.381Z,99.90
2023-05-13T19:12:20.491Z,99.90
2023-05-13T19:14:47.888Z,99.90
2023-05-13T19:17:15.081Z,99.90
2023-05-13T19:19:42.520Z,99.90
2023-05-13T19:22:09.706Z,99.90
2023-05-13T19:24:37.015Z,99.90
2023-05-13T19:27:07.283Z,99.90
2023-05-13T19:29:34.950Z,99.90
2023-05-13T19:32:02.056Z,99.90
2023-05-13T19:34:34.083Z,99.90
2023-05-13T19:37:01.250Z,99.90
2023-05-13T19:39:28.665Z,99.90
2023-05-13T19:41:57.942Z,99.90
2023-05-13T19:44:25.315Z,99.90
2023-05-13T19:46:52.665Z,99.90
2023-05-13T19:49:22.679Z,99.90
2023-05-13T19:51:49.740Z,99.90
2023-05-13T19:54:17.118Z,99.90
2023-05-13T19:56:44.162Z,99.90
2023-05-13T19:59:11.528Z,99.90
2023-05-13T20:01:40.959Z,99.90
2023-05-13T20:04:09.170Z,99.90
2023-05-13T20:06:38.681Z,99.90
2023-05-13T20:09:06.524Z,99.90
2023-05-13T20:11:33.583Z,99.90
2023-05-13T20:14:05.738Z,99.90
2023-05-13T20:16:32.809Z,99.90
2023-05-13T20:19:02.616Z,99.90
2023-05-13T20:21:30.012Z,99.90
2023-05-13T20:23:57.310Z,99.90
2023-05-13T20:26:24.452Z,99.90
2023-05-13T20:28:51.808Z,99.90
2023-05-13T20:31:18.892Z,99.90
2023-05-13T20:33:48.532Z,99.90
2023-05-13T20:36:15.765Z,99.90
2023-05-13T20:38:43.386Z,99.90
2023-05-13T20:41:10.507Z,99.90
2023-05-13T20:43:37.573Z,99.90
2023-05-13T20:46:05.762Z,99.90
2023-05-13T20:48:33.291Z,99.90
2023-05-13T20:51:06.245Z,99.90
2023-05-13T20:53:33.950Z,99.90
2023-05-13T20:56:03.182Z,99.90
2023-05-13T20:58:30.483Z,99.90
2023-05-13T21:01:00.296Z,99.90
2023-05-13T21:03:27.428Z,99.90
2023-05-13T21:05:57.174Z,99.90
2023-05-13T21:08:24.229Z,99.90
2023-05-13T21:10:51.653Z,99.90
2023-05-13T21:13:18.631Z,99.90
2023-05-13T21:15:46.203Z,99.90
2023-05-13T21:18:13.260Z,99.90
2023-05-13T21:20:48.026Z,99.90
2023-05-13T21:23:20.594Z,99.90
2023-05-13T21:25:50.213Z,99.90
2023-05-13T21:28:20.036Z,99.90
2023-05-13T21:30:47.405Z,99.90
2023-05-13T21:33:16.906Z,99.90
2023-05-13T21:35:46.695Z,99.90
2023-05-13T21:38:16.324Z,99.90
2023-05-13T21:40:44.023Z,99.90
2023-05-13T21:43:13.501Z,99.90
2023-05-13T21:45:43.274Z,99.90
2023-05-13T21:48:10.369Z,99.90
2023-05-13T21:50:37.787Z,99.90
2023-05-13T21:53:04.817Z,99.90
2023-05-13T21:55:34.919Z,99.90
2023-05-13T21:58:02.365Z,99.90
2023-05-13T22:00:29.899Z,99.90
2023-05-13T22:02:59.665Z,99.90
2023-05-13T22:05:27.510Z,99.90
2023-05-13T22:07:54.610Z,99.90
2023-05-13T22:10:22.174Z,99.90
2023-05-13T22:12:49.354Z,99.90
2023-05-13T22:15:16.766Z,99.90
2023-05-13T22:17:50.640Z,99.90
2023-05-13T22:20:20.984Z,99.90
2023-05-13T22:22:48.163Z,99.90
2023-05-13T22:25:17.939Z,99.90
2023-05-13T22:27:46.367Z,99.90
2023-05-13T22:30:13.863Z,99.90
2023-05-13T22:32:40.915Z,99.90
2023-05-13T22:35:13.396Z,99.90
2023-05-13T22:37:40.610Z,99.90
2023-05-13T22:40:09.975Z,99.90
2023-05-13T22:42:37.246Z,99.90
2023-05-13T22:45:05.027Z,99.90
2023-05-13T22:47:32.121Z,99.90
2023-05-13T22:52:26.849Z,99.90
2023-05-13T22:54:54.176Z,99.90
2023-05-13T22:57:23.455Z,99.90
2023-05-13T22:59:50.821Z,99.90
2023-05-13T23:04:48.112Z,99.90
2023-05-13T23:09:43.233Z,99.90
2023-05-13T23:12:12.576Z,99.90
2023-05-13T23:14:40.071Z,99.90
2023-05-13T23:17:07.218Z,99.90
2023-05-13T23:19:34.547Z,99.90
2023-05-13T23:22:04.178Z,99.90
2023-05-13T23:24:31.502Z,99.90
2023-05-13T23:26:58.584Z,99.90
2023-05-13T23:29:25.908Z,99.90
2023-05-13T23:31:54.032Z,99.90
2023-05-13T23:34:21.505Z,99.90
2023-05-13T23:36:50.796Z,99.90
2023-05-13T23:39:18.143Z,99.90
2023-05-13T23:41:45.188Z,99.90
2023-05-13T23:44:12.488Z,99.90
2023-05-13T23:46:39.503Z,99.90
2023-05-13T23:49:09.836Z,99.90
2023-05-13T23:54:06.824Z,99.90
2023-05-13T23:56:34.606Z,99.90
2023-05-13T23:59:04.912Z,99.90
